createdAt,value
2022-12-03T00:02:39.238Z,6.40
2022-12-03T00:05:25.655Z,6.40
2022-12-03T00:08:11.779Z,6.30
2022-12-03T00:10:58.587Z,6.30
2022-12-03T00:13:45.441Z,6.40
2022-12-03T00:16:31.362Z,6.40
2022-12-03T00:19:17.311Z,6.40
2022-12-03T00:22:03.256Z,6.40
2022-12-03T00:24:49.295Z,6.50
2022-12-03T00:27:35.162Z,6.40
2022-12-03T00:30:21.079Z,6.40
2022-12-03T00:33:06.939Z,6.50
2022-12-03T00:35:53.198Z,6.40
2022-12-03T00:38:39.160Z,6.50
2022-12-03T00:41:27.449Z,6.40
2022-12-03T00:44:13.589Z,6.50
2022-12-03T00:46:59.885Z,6.40
2022-12-03T00:49:45.636Z,6.40
2022-12-03T00:52:31.532Z,6.40
2022-12-03T00:55:17.451Z,6.40
2022-12-03T00:58:03.354Z,6.40
2022-12-03T01:00:49.293Z,6.40
2022-12-03T01:03:35.359Z,6.40
2022-12-03T01:06:21.417Z,6.40
2022-12-03T01:09:07.647Z,6.40
2022-12-03T01:11:56.511Z,6.40
2022-12-03T01:14:42.963Z,6.40
2022-12-03T01:17:29.756Z,6.40
2022-12-03T01:20:15.806Z,6.40
2022-12-03T01:23:02.131Z,6.40
2022-12-03T01:25:48.376Z,6.40
2022-12-03T01:28:34.847Z,6.30
2022-12-03T01:31:39.498Z,6.40
2022-12-03T01:34:26.025Z,6.40
2022-12-03T01:37:12.259Z,6.30
2022-12-03T01:40:00.696Z,6.30
2022-12-03T01:42:46.718Z,6.30
2022-12-03T01:45:37.460Z,6.30
2022-12-03T01:48:26.625Z,6.30
2022-12-03T01:51:13.911Z,6.30
2022-12-03T01:54:04.837Z,6.30
2022-12-03T01:56:51.339Z,6.20
2022-12-03T01:59:38.933Z,6.20
2022-12-03T02:02:34.586Z,6.20
2022-12-03T02:05:24.257Z,6.20
2022-12-03T02:08:47.493Z,6.10
2022-12-03T02:11:39.786Z,6.20
2022-12-03T02:14:26.427Z,6.10
2022-12-03T02:17:13.522Z,6.10
2022-12-03T02:20:01.870Z,6.10
2022-12-03T02:23:04.749Z,6.10
2022-12-03T02:25:51.006Z,6.10
2022-12-03T02:28:38.182Z,6.10
2022-12-03T02:31:25.308Z,6.10
2022-12-03T02:34:11.849Z,6.10
2022-12-03T02:36:57.736Z,6.10
2022-12-03T02:39:49.499Z,6.10
2022-12-03T02:42:35.876Z,6.10
2022-12-03T02:45:29.976Z,6.10
2022-12-03T02:48:19.583Z,6.10
2022-12-03T02:51:09.071Z,6.10
2022-12-03T02:53:56.818Z,6.20
2022-12-03T02:56:42.892Z,6.10
2022-12-03T02:59:29.000Z,6.20
2022-12-03T03:02:14.972Z,6.20
2022-12-03T03:05:02.510Z,6.20
2022-12-03T03:07:51.012Z,6.10
2022-12-03T03:10:42.266Z,6.20
2022-12-03T03:13:31.127Z,6.20
2022-12-03T03:16:17.647Z,6.20
2022-12-03T03:19:04.011Z,6.20
2022-12-03T03:21:50.413Z,6.20
2022-12-03T03:24:37.466Z,6.20
2022-12-03T03:27:23.763Z,6.20
2022-12-03T03:30:10.851Z,6.20
2022-12-03T03:32:57.601Z,6.20
2022-12-03T03:35:46.382Z,6.20
2022-12-03T03:38:33.982Z,6.20
2022-12-03T03:41:21.555Z,6.20
2022-12-03T03:44:09.434Z,6.20
2022-12-03T03:46:57.272Z,6.20
2022-12-03T03:49:43.541Z,6.30
2022-12-03T03:52:30.362Z,6.10
2022-12-03T03:55:20.429Z,6.20
2022-12-03T03:58:07.177Z,6.20
2022-12-03T04:00:53.391Z,6.20
2022-12-03T04:03:40.431Z,6.20
2022-12-03T04:06:27.909Z,6.20
2022-12-03T04:09:14.542Z,6.20
2022-12-03T04:12:18.929Z,6.20
2022-12-03T04:15:05.589Z,6.20
2022-12-03T04:18:10.852Z,6.20
2022-12-03T04:21:16.624Z,6.20
2022-12-03T04:24:03.186Z,6.20
2022-12-03T04:27:10.408Z,6.20
2022-12-03T04:29:56.414Z,6.30
2022-12-03T04:33:00.858Z,6.20
2022-12-03T04:35:46.977Z,6.10
2022-12-03T04:38:33.485Z,6.30
2022-12-03T04:41:19.741Z,6.20
2022-12-03T04:44:24.620Z,6.20
2022-12-03T04:47:13.017Z,6.30
2022-12-03T04:49:59.171Z,6.20
2022-12-03T04:52:45.309Z,6.10
2022-12-03T04:55:31.084Z,6.10
2022-12-03T04:58:17.108Z,6.10
2022-12-03T05:01:02.951Z,6.10
2022-12-03T05:03:48.829Z,6.10
2022-12-03T05:06:34.913Z,6.10
2022-12-03T05:09:20.977Z,6.00
2022-12-03T05:12:07.356Z,6.10
2022-12-03T05:14:55.077Z,6.00
2022-12-03T05:17:41.264Z,6.00
2022-12-03T05:20:42.256Z,6.00
2022-12-03T05:23:28.372Z,6.00
2022-12-03T05:26:14.359Z,6.00
2022-12-03T05:29:00.575Z,5.90
2022-12-03T05:31:46.674Z,5.90
2022-12-03T05:34:32.718Z,5.90
2022-12-03T05:37:18.858Z,5.90
2022-12-03T05:40:05.794Z,5.80
2022-12-03T05:42:54.761Z,5.90
2022-12-03T05:45:42.757Z,5.90
2022-12-03T05:48:28.908Z,5.90
2022-12-03T05:51:14.800Z,5.90
2022-12-03T05:54:00.790Z,6.00
2022-12-03T05:56:47.236Z,5.90
2022-12-03T05:59:33.077Z,6.00
2022-12-03T06:02:19.302Z,6.00
2022-12-03T06:05:05.968Z,6.00
2022-12-03T06:07:53.788Z,6.00
2022-12-03T06:10:40.610Z,6.00
2022-12-03T06:13:26.520Z,6.00
2022-12-03T06:16:12.519Z,6.10
2022-12-03T06:18:58.996Z,6.10
2022-12-03T06:21:44.847Z,6.10
2022-12-03T06:24:30.881Z,6.10
2022-12-03T06:27:20.054Z,6.00
2022-12-03T06:30:08.624Z,6.20
2022-12-03T06:32:54.968Z,6.20
2022-12-03T06:35:41.120Z,6.00
2022-12-03T06:38:27.151Z,6.20
2022-12-03T06:41:13.041Z,6.20
2022-12-03T06:43:59.075Z,6.20
2022-12-03T06:46:45.068Z,6.30
2022-12-03T06:49:31.497Z,6.20
2022-12-03T06:52:17.776Z,6.30
2022-12-03T06:55:04.358Z,6.30
2022-12-03T06:57:50.499Z,6.30
2022-12-03T07:00:37.184Z,6.30
2022-12-03T07:03:23.635Z,6.40
2022-12-03T07:06:09.940Z,6.30
2022-12-03T07:08:57.847Z,6.40
2022-12-03T07:11:44.094Z,6.40
2022-12-03T07:14:30.318Z,6.30
2022-12-03T07:17:16.214Z,6.30
2022-12-03T07:20:02.353Z,6.50
2022-12-03T07:22:48.600Z,6.30
2022-12-03T07:25:35.062Z,6.30
2022-12-03T07:28:20.881Z,6.30
2022-12-03T07:31:06.925Z,6.40
2022-12-03T07:33:52.873Z,6.30
2022-12-03T07:36:38.949Z,6.30
2022-12-03T07:39:26.672Z,6.30
2022-12-03T07:42:15.104Z,6.30
2022-12-03T07:45:02.694Z,6.50
2022-12-03T07:47:48.705Z,6.30
2022-12-03T07:50:34.609Z,6.20
2022-12-03T07:53:21.674Z,6.30
2022-12-03T07:56:08.118Z,6.40
2022-12-03T07:58:54.277Z,6.30
2022-12-03T08:01:40.435Z,6.30
2022-12-03T08:04:26.989Z,6.30
2022-12-03T08:07:17.252Z,6.30
2022-12-03T08:10:06.465Z,6.30
2022-12-03T08:12:53.853Z,6.30
2022-12-03T08:15:41.158Z,6.30
2022-12-03T08:18:28.542Z,6.30
2022-12-03T08:21:18.014Z,6.30
2022-12-03T08:24:13.529Z,6.40
2022-12-03T08:27:00.648Z,6.40
2022-12-03T08:29:47.351Z,6.30
2022-12-03T08:32:33.744Z,6.40
2022-12-03T08:35:25.512Z,6.40
2022-12-03T08:38:13.096Z,6.40
2022-12-03T08:40:59.154Z,6.40
2022-12-03T08:43:45.221Z,6.40
2022-12-03T08:46:31.170Z,6.40
2022-12-03T08:49:22.967Z,6.50
2022-12-03T08:52:21.354Z,6.40
2022-12-03T08:55:46.862Z,6.50
2022-12-03T08:58:42.532Z,6.50
2022-12-03T09:01:42.406Z,6.50
2022-12-03T09:04:45.392Z,6.60
2022-12-03T09:07:31.784Z,6.60
2022-12-03T09:10:21.205Z,6.60
2022-12-03T09:13:07.713Z,6.70
2022-12-03T09:15:54.023Z,6.70
2022-12-03T09:18:39.999Z,6.70
2022-12-03T09:21:28.679Z,6.80
2022-12-03T09:24:16.617Z,6.70
2022-12-03T09:27:02.916Z,6.80
2022-12-03T09:29:52.498Z,6.80
2022-12-03T09:32:38.536Z,6.80
2022-12-03T09:35:26.285Z,6.90
2022-12-03T09:38:16.125Z,6.90
2022-12-03T09:41:02.221Z,6.90
2022-12-03T09:44:04.041Z,7.00
2022-12-03T09:46:51.025Z,7.00
2022-12-03T09:49:38.921Z,7.00
2022-12-03T09:52:31.033Z,7.10
2022-12-03T09:55:25.363Z,7.10
2022-12-03T09:58:18.057Z,7.10
2022-12-03T10:01:16.284Z,7.30
2022-12-03T10:04:02.382Z,7.20
2022-12-03T10:06:48.867Z,7.20
2022-12-03T10:09:35.344Z,7.30
2022-12-03T10:12:25.125Z,7.40
2022-12-03T10:15:17.742Z,7.40
2022-12-03T10:18:24.972Z,7.40
2022-12-03T10:21:32.830Z,7.50
2022-12-03T10:24:21.874Z,7.50
2022-12-03T10:27:29.181Z,7.60
2022-12-03T10:30:19.761Z,7.60
2022-12-03T10:33:18.494Z,7.60
2022-12-03T10:36:15.895Z,7.60
2022-12-03T10:39:10.087Z,7.60
2022-12-03T10:42:15.099Z,7.70
2022-12-03T10:45:15.572Z,7.80
2022-12-03T10:48:05.135Z,7.80
2022-12-03T10:50:56.985Z,7.80
2022-12-03T10:53:43.302Z,7.90
2022-12-03T10:56:29.691Z,8.00
2022-12-03T10:59:28.397Z,8.00
2022-12-03T11:02:21.379Z,8.00
2022-12-03T11:05:07.826Z,8.10
2022-12-03T11:07:54.173Z,8.10
2022-12-03T11:10:40.630Z,8.20
2022-12-03T11:13:34.491Z,8.20
2022-12-03T11:16:39.684Z,8.20
2022-12-03T11:19:46.938Z,8.20
2022-12-03T11:22:52.606Z,8.20
2022-12-03T11:25:50.567Z,8.00
2022-12-03T11:28:49.958Z,8.10
2022-12-03T11:31:47.262Z,8.00
2022-12-03T11:34:33.470Z,8.00
2022-12-03T11:37:19.167Z,8.00
2022-12-03T11:40:27.174Z,8.00
2022-12-03T11:43:13.427Z,8.00
2022-12-03T11:46:09.235Z,8.10
2022-12-03T11:49:03.276Z,8.10
2022-12-03T11:51:49.665Z,8.20
2022-12-03T11:54:35.926Z,8.20
2022-12-03T11:57:37.946Z,8.20
2022-12-03T12:00:24.670Z,8.20
2022-12-03T12:03:24.537Z,8.20
2022-12-03T12:06:13.071Z,8.30
2022-12-03T12:08:59.913Z,8.20
2022-12-03T12:11:46.045Z,8.40
2022-12-03T12:14:32.162Z,8.40
2022-12-03T12:17:34.382Z,8.40
2022-12-03T12:20:27.480Z,8.40
2022-12-03T12:23:28.712Z,8.40
2022-12-03T12:26:15.169Z,8.40
2022-12-03T12:29:01.421Z,8.50
2022-12-03T12:31:53.737Z,8.60
2022-12-03T12:34:48.409Z,8.60
2022-12-03T12:37:36.232Z,8.70
2022-12-03T12:40:27.753Z,8.80
2022-12-03T12:43:24.256Z,8.80
2022-12-03T12:49:25.088Z,8.80
2022-12-03T12:52:14.928Z,8.70
2022-12-03T12:55:04.916Z,8.60
2022-12-03T12:57:52.106Z,8.50
2022-12-03T13:00:38.418Z,8.50
2022-12-03T13:03:28.789Z,8.50
2022-12-03T13:06:16.429Z,8.50
2022-12-03T13:09:02.301Z,8.50
2022-12-03T13:12:04.031Z,8.50
2022-12-03T13:14:52.603Z,8.50
2022-12-03T13:17:39.150Z,8.50
2022-12-03T13:20:25.393Z,8.40
2022-12-03T13:23:30.188Z,8.40
2022-12-03T13:26:36.071Z,8.40
2022-12-03T13:29:25.882Z,8.30
2022-12-03T13:32:27.673Z,8.30
2022-12-03T13:35:36.469Z,8.30
2022-12-03T13:38:23.767Z,8.30
2022-12-03T13:41:34.447Z,8.30
2022-12-03T13:44:20.601Z,8.20
2022-12-03T13:47:18.557Z,8.20
2022-12-03T13:50:16.379Z,8.20
2022-12-03T13:53:11.504Z,8.20
2022-12-03T13:56:03.362Z,8.20
2022-12-03T13:58:49.648Z,8.20
2022-12-03T14:01:36.391Z,8.10
2022-12-03T14:04:23.223Z,8.20
2022-12-03T14:07:09.374Z,8.10
2022-12-03T14:09:55.572Z,8.10
2022-12-03T14:12:42.434Z,8.10
2022-12-03T14:15:28.572Z,8.20
2022-12-03T14:18:14.904Z,8.10
2022-12-03T14:21:01.050Z,8.10
2022-12-03T14:23:47.515Z,8.00
2022-12-03T14:26:34.189Z,8.00
2022-12-03T14:29:20.532Z,8.00
2022-12-03T14:32:06.874Z,8.00
2022-12-03T14:34:53.165Z,8.00
2022-12-03T14:37:39.218Z,8.00
2022-12-03T14:40:27.727Z,8.00
2022-12-03T14:43:14.350Z,7.90
2022-12-03T14:46:01.026Z,7.90
2022-12-03T14:48:50.211Z,7.90
2022-12-03T14:51:36.086Z,8.00
2022-12-03T14:54:22.489Z,7.90
2022-12-03T14:57:09.420Z,7.90
2022-12-03T14:59:55.596Z,7.90
2022-12-03T15:02:42.051Z,7.80
2022-12-03T15:05:29.173Z,7.80
2022-12-03T15:08:15.397Z,7.80
2022-12-03T15:11:01.502Z,7.80
2022-12-03T15:13:50.407Z,7.70
2022-12-03T15:16:36.374Z,7.70
2022-12-03T15:19:24.872Z,7.70
2022-12-03T15:22:10.808Z,7.70
2022-12-03T15:24:57.362Z,7.70
2022-12-03T15:27:43.522Z,7.70
2022-12-03T15:30:30.808Z,7.60
2022-12-03T15:33:17.225Z,7.70
2022-12-03T15:36:03.537Z,7.70
2022-12-03T15:38:49.774Z,7.70
2022-12-03T15:41:36.402Z,7.60
2022-12-03T15:44:26.382Z,7.70
2022-12-03T15:47:12.957Z,7.70
2022-12-03T15:49:59.306Z,7.60
2022-12-03T15:52:48.572Z,7.60
2022-12-03T15:55:34.429Z,7.60
2022-12-03T15:58:20.361Z,7.60
2022-12-03T16:01:09.547Z,7.60
2022-12-03T16:03:55.553Z,7.50
2022-12-03T16:06:42.173Z,7.60
2022-12-03T16:09:29.107Z,7.50
2022-12-03T16:12:14.997Z,7.50
2022-12-03T16:15:00.951Z,7.50
2022-12-03T16:17:47.713Z,7.50
2022-12-03T16:20:33.854Z,7.50
2022-12-03T16:23:19.890Z,7.50
2022-12-03T16:26:06.425Z,7.40
2022-12-03T16:28:54.466Z,7.40
2022-12-03T16:31:40.615Z,7.40
2022-12-03T16:34:26.958Z,7.40
2022-12-03T16:37:13.016Z,7.40
2022-12-03T16:40:07.403Z,7.40
2022-12-03T16:42:53.582Z,7.40
2022-12-03T16:46:02.696Z,7.40
2022-12-03T16:48:48.988Z,7.40
2022-12-03T16:51:35.090Z,7.40
2022-12-03T16:54:21.686Z,7.40
2022-12-03T16:57:07.728Z,7.50
2022-12-03T16:59:54.523Z,7.40
2022-12-03T17:02:40.926Z,7.40
2022-12-03T17:05:27.126Z,7.30
2022-12-03T17:08:14.390Z,7.30
2022-12-03T17:11:00.420Z,7.30
2022-12-03T17:13:46.839Z,7.30
2022-12-03T17:16:32.847Z,7.30
2022-12-03T17:19:18.637Z,7.30
2022-12-03T17:22:05.004Z,7.30
2022-12-03T17:24:51.242Z,7.30
2022-12-03T17:27:43.512Z,7.30
2022-12-03T17:30:32.047Z,7.30
2022-12-03T17:33:18.316Z,7.30
2022-12-03T17:36:04.562Z,7.30
2022-12-03T17:38:50.800Z,7.30
2022-12-03T17:41:36.906Z,7.30
2022-12-03T17:44:24.478Z,7.30
2022-12-03T17:47:10.830Z,7.40
2022-12-03T17:49:57.224Z,7.30
2022-12-03T17:52:44.245Z,7.30
2022-12-03T17:55:38.544Z,7.30
2022-12-03T17:58:28.704Z,7.30
2022-12-03T18:01:14.549Z,7.30
2022-12-03T18:04:02.145Z,7.20
2022-12-03T18:06:48.513Z,7.20
2022-12-03T18:09:35.716Z,7.20
2022-12-03T18:12:21.788Z,7.20
2022-12-03T18:15:10.869Z,7.10
2022-12-03T18:17:57.015Z,7.10
2022-12-03T18:20:42.792Z,7.10
2022-12-03T18:23:30.289Z,7.10
2022-12-03T18:26:18.964Z,7.00
2022-12-03T18:29:05.075Z,7.00
2022-12-03T18:31:51.420Z,6.90
2022-12-03T18:34:38.003Z,6.90
2022-12-03T18:37:28.177Z,6.90
2022-12-03T18:40:21.732Z,6.90
2022-12-03T18:43:16.209Z,6.90
2022-12-03T18:46:04.409Z,6.90
2022-12-03T18:48:53.926Z,6.90
2022-12-03T18:51:40.316Z,6.90
2022-12-03T18:54:26.781Z,6.90
2022-12-03T18:57:12.973Z,6.90
2022-12-03T18:59:59.223Z,6.90
2022-12-03T19:03:04.786Z,6.90
2022-12-03T19:05:51.488Z,6.90
2022-12-03T19:08:37.952Z,7.00
2022-12-03T19:11:24.035Z,6.90
2022-12-03T19:14:11.115Z,6.90
2022-12-03T19:16:57.415Z,6.90
2022-12-03T19:19:43.632Z,7.00
2022-12-03T19:22:29.578Z,6.90
2022-12-03T19:25:22.392Z,6.90
2022-12-03T19:28:09.267Z,6.90
2022-12-03T19:31:04.600Z,6.90
2022-12-03T19:33:51.771Z,6.90
2022-12-03T19:36:38.123Z,6.90
2022-12-03T19:39:24.262Z,6.80
2022-12-03T19:42:10.197Z,6.90
2022-12-03T19:44:55.988Z,6.90
2022-12-03T19:47:41.799Z,6.80
2022-12-03T19:50:30.197Z,6.90
2022-12-03T19:53:16.248Z,6.90
2022-12-03T19:56:16.091Z,6.80
2022-12-03T19:59:03.827Z,6.80
2022-12-03T20:01:49.829Z,6.80
2022-12-03T20:04:36.185Z,6.80
2022-12-03T20:07:25.664Z,6.80
2022-12-03T20:10:12.646Z,6.70
2022-12-03T20:12:59.167Z,6.70
2022-12-03T20:15:45.306Z,6.80
2022-12-03T20:18:31.985Z,6.70
2022-12-03T20:21:19.936Z,6.70
2022-12-03T20:24:08.013Z,6.70
2022-12-03T20:26:54.411Z,6.70
2022-12-03T20:29:40.627Z,6.70
2022-12-03T20:32:26.633Z,6.70
2022-12-03T20:35:13.127Z,6.70
2022-12-03T20:38:00.151Z,6.60
2022-12-03T20:40:46.802Z,6.60
2022-12-03T20:43:33.191Z,6.60
2022-12-03T20:46:25.837Z,6.60
2022-12-03T20:49:12.609Z,6.60
2022-12-03T20:52:04.455Z,6.60
2022-12-03T20:54:50.917Z,6.60
2022-12-03T20:57:37.430Z,6.60
2022-12-03T21:00:26.300Z,6.60
2022-12-03T21:03:12.535Z,6.60
2022-12-03T21:06:00.403Z,6.50
2022-12-03T21:08:49.372Z,6.60
2022-12-03T21:11:38.927Z,6.50
2022-12-03T21:14:25.124Z,6.50
2022-12-03T21:17:11.816Z,6.50
2022-12-03T21:19:58.415Z,6.40
2022-12-03T21:22:44.399Z,6.30
2022-12-03T21:25:30.164Z,6.40
2022-12-03T21:28:16.178Z,6.40
2022-12-03T21:31:04.621Z,6.40
2022-12-03T21:33:50.904Z,6.40
2022-12-03T21:36:36.910Z,6.40
2022-12-03T21:39:22.992Z,6.40
2022-12-03T21:42:36.204Z,6.40
2022-12-03T21:45:15.775Z,6.40
2022-12-03T21:48:01.570Z,6.30
2022-12-03T21:51:07.725Z,6.20
2022-12-03T21:53:53.774Z,6.30
2022-12-03T21:56:39.721Z,6.20
2022-12-03T21:59:25.560Z,6.20
2022-12-03T22:02:11.791Z,6.10
2022-12-03T22:04:58.142Z,6.10
2022-12-03T22:07:44.727Z,6.00
2022-12-03T22:10:30.980Z,6.00
2022-12-03T22:13:17.165Z,6.00
2022-12-03T22:16:10.605Z,6.00
2022-12-03T22:18:56.625Z,6.00
2022-12-03T22:21:43.324Z,6.00
2022-12-03T22:24:29.261Z,6.00
2022-12-03T22:27:15.331Z,6.00
2022-12-03T22:30:01.998Z,6.00
2022-12-03T22:32:48.245Z,6.10
2022-12-03T22:35:34.316Z,6.00
2022-12-03T22:38:20.226Z,6.10
2022-12-03T22:41:08.044Z,6.10
2022-12-03T22:43:54.622Z,6.10
2022-12-03T22:46:40.990Z,6.10
2022-12-03T22:49:27.288Z,6.10
2022-12-03T22:52:18.775Z,6.20
2022-12-03T22:55:04.997Z,6.20
2022-12-03T22:57:51.432Z,6.10
2022-12-03T23:00:40.674Z,6.10
2022-12-03T23:03:26.540Z,6.20
2022-12-03T23:06:12.799Z,6.20
2022-12-03T23:09:00.826Z,6.20
2022-12-03T23:11:47.414Z,6.20
2022-12-03T23:14:33.660Z,6.20
2022-12-03T23:17:19.435Z,6.20
2022-12-03T23:20:06.121Z,6.20
2022-12-03T23:22:53.046Z,6.20
2022-12-03T23:25:39.780Z,6.20
2022-12-03T23:28:26.629Z,6.30
2022-12-03T23:31:27.929Z,6.20
2022-12-03T23:34:14.412Z,6.30
2022-12-03T23:37:00.382Z,6.30
2022-12-03T23:39:48.157Z,6.30
2022-12-03T23:42:34.513Z,6.30
2022-12-03T23:45:20.618Z,6.30
2022-12-03T23:48:07.185Z,6.30
2022-12-03T23:50:53.404Z,6.30
2022-12-03T23:53:42.304Z,6.30
2022-12-03T23:56:30.261Z,6.30
2022-12-03T23:59:16.543Z,6.30
